createdAt,value
2022-08-20T00:01:10.033Z,23.46
2022-08-20T00:06:17.783Z,23.38
2022-08-20T00:11:25.155Z,23.26
2022-08-20T00:16:32.920Z,23.05
2022-08-20T00:21:36.622Z,22.84
2022-08-20T00:26:51.868Z,22.69
2022-08-20T00:31:55.778Z,22.70
2022-08-20T00:36:59.534Z,22.76
2022-08-20T00:42:03.752Z,22.75
2022-08-20T00:47:06.537Z,22.69
2022-08-20T00:52:15.999Z,22.73
2022-08-20T00:57:58.871Z,22.69
2022-08-20T01:02:57.730Z,22.56
2022-08-20T01:08:00.455Z,22.55
2022-08-20T01:13:11.056Z,22.51
2022-08-20T01:18:18.281Z,22.46
2022-08-20T01:23:40.184Z,22.45
2022-08-20T01:29:02.944Z,22.40
2022-08-20T01:34:09.099Z,22.28
2022-08-20T01:39:21.690Z,22.23
2022-08-20T01:44:25.447Z,22.19
2022-08-20T01:49:30.755Z,22.15
2022-08-20T01:54:33.970Z,22.12
2022-08-20T01:59:37.120Z,22.12
2022-08-20T02:04:40.440Z,22.11
2022-08-20T02:09:43.844Z,22.07
2022-08-20T02:14:51.440Z,22.04
2022-08-20T02:20:16.365Z,22.00
2022-08-20T02:25:23.117Z,21.95
2022-08-20T02:30:33.216Z,21.91
2022-08-20T02:35:36.269Z,21.85
2022-08-20T02:40:39.109Z,21.77
2022-08-20T02:45:44.234Z,21.68
2022-08-20T02:51:01.813Z,21.66
2022-08-20T02:56:06.268Z,21.60
2022-08-20T03:01:12.644Z,21.54
2022-08-20T03:06:16.259Z,21.56
2022-08-20T03:11:20.664Z,21.58
2022-08-20T03:16:23.479Z,21.61
2022-08-20T03:21:26.733Z,21.59
2022-08-20T03:26:29.554Z,21.62
2022-08-20T03:31:32.858Z,21.63
2022-08-20T03:36:35.643Z,21.62
2022-08-20T03:41:39.322Z,21.65
2022-08-20T03:46:42.074Z,21.68
2022-08-20T03:51:58.292Z,21.76
2022-08-20T03:57:02.939Z,21.77
2022-08-20T04:02:08.101Z,21.76
2022-08-20T04:07:17.327Z,21.81
2022-08-20T04:12:20.112Z,21.81
2022-08-20T04:17:24.680Z,21.85
2022-08-20T04:22:27.428Z,21.87
2022-08-20T04:27:32.638Z,21.98
2022-08-20T04:32:37.052Z,22.05
2022-08-20T04:37:41.866Z,22.09
2022-08-20T04:42:45.096Z,22.12
2022-08-20T04:47:49.811Z,22.24
2022-08-20T04:52:52.561Z,22.38
2022-08-20T04:57:56.278Z,22.44
2022-08-20T05:02:59.279Z,22.39
2022-08-20T05:08:02.296Z,22.38
2022-08-20T05:13:06.820Z,22.50
2022-08-20T05:18:09.631Z,22.63
2022-08-20T05:23:13.531Z,22.76
2022-08-20T05:28:25.732Z,22.86
2022-08-20T05:33:30.143Z,22.93
2022-08-20T05:38:35.019Z,22.98
2022-08-20T05:43:37.899Z,22.97
2022-08-20T05:48:40.841Z,23.10
2022-08-20T05:53:43.929Z,23.25
2022-08-20T05:58:46.711Z,23.33
2022-08-20T06:04:08.474Z,23.43
2022-08-20T06:09:11.431Z,23.46
2022-08-20T06:14:16.711Z,23.49
2022-08-20T06:19:24.977Z,23.60
2022-08-20T06:24:29.072Z,23.69
2022-08-20T06:29:35.315Z,23.81
2022-08-20T06:34:38.251Z,23.86
2022-08-20T06:39:53.871Z,23.94
2022-08-20T06:44:56.699Z,24.06
2022-08-20T06:49:59.742Z,24.21
2022-08-20T06:55:02.520Z,24.31
2022-08-20T07:00:14.383Z,24.37
2022-08-20T07:05:17.261Z,24.48
2022-08-20T07:10:20.729Z,24.65
2022-08-20T07:15:25.936Z,24.81
2022-08-20T07:20:29.854Z,24.94
2022-08-20T07:25:33.792Z,25.06
2022-08-20T07:30:56.830Z,25.15
2022-08-20T07:36:03.557Z,25.22
2022-08-20T07:41:13.591Z,25.28
2022-08-20T07:46:20.618Z,25.36
2022-08-20T07:51:23.660Z,25.37
2022-08-20T07:56:28.085Z,25.25
2022-08-20T08:01:31.765Z,25.26
2022-08-20T08:06:34.487Z,25.33
2022-08-20T08:11:47.300Z,25.53
2022-08-20T08:16:50.640Z,25.73
2022-08-20T08:21:53.480Z,25.85
2022-08-20T08:26:56.236Z,25.89
2022-08-20T08:32:01.190Z,25.99
2022-08-20T08:37:05.499Z,26.16
2022-08-20T08:42:26.021Z,26.45
2022-08-20T08:47:35.952Z,26.85
2022-08-20T08:52:40.771Z,27.16
2022-08-20T08:57:43.537Z,27.37
2022-08-20T09:03:07.398Z,27.63
2022-08-20T09:08:16.727Z,27.91
2022-08-20T09:13:19.932Z,28.05
2022-08-20T09:18:22.656Z,28.17
2022-08-20T09:23:25.434Z,28.34
2022-08-20T09:28:32.471Z,28.72
2022-08-20T09:33:37.825Z,29.00
2022-08-20T09:38:40.550Z,29.24
2022-08-20T09:43:43.241Z,29.39
2022-08-20T09:48:46.750Z,29.44
2022-08-20T09:53:49.617Z,29.85
2022-08-20T09:58:54.362Z,30.43
2022-08-20T10:03:57.714Z,31.08
2022-08-20T10:09:03.455Z,31.64
2022-08-20T10:14:09.601Z,32.11
2022-08-20T10:19:12.392Z,32.74
2022-08-20T10:24:15.145Z,33.41
2022-08-20T10:29:17.912Z,33.91
2022-08-20T10:34:20.694Z,34.20
2022-08-20T10:39:23.445Z,34.71
2022-08-20T10:44:26.212Z,35.40
2022-08-20T10:49:34.439Z,36.09
2022-08-20T10:54:37.311Z,36.71
2022-08-20T10:59:41.821Z,37.22
2022-08-20T11:04:44.905Z,37.99
2022-08-20T11:09:48.745Z,38.59
2022-08-20T11:14:51.971Z,39.24
2022-08-20T11:19:55.038Z,40.01
2022-08-20T11:24:57.810Z,40.25
2022-08-20T11:30:00.628Z,41.06
2022-08-20T11:35:24.382Z,41.56
2022-08-20T11:40:27.704Z,41.42
2022-08-20T11:45:30.569Z,41.88
2022-08-20T11:50:40.192Z,41.92
2022-08-20T11:55:43.888Z,40.86
2022-08-20T12:00:46.580Z,40.15
2022-08-20T12:05:49.324Z,40.73
2022-08-20T12:10:52.045Z,41.13
2022-08-20T12:15:54.992Z,41.82
2022-08-20T12:20:58.112Z,42.16
2022-08-20T12:26:03.274Z,42.97
2022-08-20T12:31:06.581Z,43.73
2022-08-20T12:36:09.317Z,44.37
2022-08-20T12:41:12.043Z,44.36
2022-08-20T12:46:14.936Z,44.90
2022-08-20T12:51:17.776Z,44.82
2022-08-20T12:56:20.445Z,45.15
2022-08-20T13:01:23.293Z,45.05
2022-08-20T13:06:26.162Z,45.63
2022-08-20T13:11:31.350Z,45.81
2022-08-20T13:16:34.248Z,45.91
2022-08-20T13:21:37.062Z,46.51
2022-08-20T13:26:39.791Z,46.80
2022-08-20T13:31:42.663Z,46.42
2022-08-20T13:36:45.465Z,46.50
2022-08-20T13:41:48.308Z,46.47
2022-08-20T13:46:51.089Z,46.33
2022-08-20T13:51:55.433Z,46.17
2022-08-20T13:57:12.546Z,46.25
2022-08-20T14:02:16.445Z,46.76
2022-08-20T14:07:32.295Z,46.57
2022-08-20T14:12:36.802Z,45.45
2022-08-20T14:17:52.508Z,44.69
2022-08-20T14:22:55.430Z,45.10
2022-08-20T14:27:58.638Z,45.48
2022-08-20T14:33:01.332Z,46.02
2022-08-20T14:38:05.213Z,45.73
2022-08-20T14:43:08.420Z,44.01
2022-08-20T14:48:11.264Z,43.03
2022-08-20T14:53:15.625Z,41.48
2022-08-20T14:58:18.505Z,40.03
2022-08-20T15:03:24.057Z,39.04
2022-08-20T15:08:28.340Z,37.84
2022-08-20T15:13:31.803Z,36.90
2022-08-20T15:18:35.462Z,36.10
2022-08-20T15:23:38.197Z,35.42
2022-08-20T15:28:41.085Z,34.78
2022-08-20T15:33:43.861Z,34.21
2022-08-20T15:38:46.639Z,33.68
2022-08-20T15:43:49.420Z,33.09
2022-08-20T15:48:52.183Z,32.64
2022-08-20T15:54:24.096Z,32.29
2022-08-20T15:59:54.874Z,31.93
2022-08-20T16:05:27.337Z,31.59
2022-08-20T16:10:43.378Z,31.20
2022-08-20T16:15:49.422Z,30.91
2022-08-20T16:20:53.880Z,30.65
2022-08-20T16:26:23.518Z,30.31
2022-08-20T16:31:48.517Z,29.94
2022-08-20T16:37:21.868Z,29.75
2022-08-20T16:42:24.877Z,29.51
2022-08-20T16:47:30.775Z,29.25
2022-08-20T16:52:33.696Z,28.99
2022-08-20T16:57:36.530Z,28.75
2022-08-20T17:02:58.518Z,28.53
2022-08-20T17:08:03.689Z,28.23
2022-08-20T17:13:30.083Z,28.05
2022-08-20T17:18:37.095Z,27.82
2022-08-20T17:23:55.557Z,27.60
2022-08-20T17:29:19.180Z,27.31
2022-08-20T17:34:28.052Z,27.10
2022-08-20T17:39:32.050Z,26.92
2022-08-20T17:44:39.880Z,26.74
2022-08-20T17:50:02.690Z,26.56
2022-08-20T17:55:06.542Z,26.39
2022-08-20T18:00:15.007Z,26.25
2022-08-20T18:05:21.536Z,26.09
2022-08-20T18:10:26.279Z,25.95
2022-08-20T18:15:35.985Z,25.80
2022-08-20T18:21:21.366Z,25.68
2022-08-20T18:26:32.338Z,25.51
2022-08-20T18:31:54.669Z,25.38
2022-08-20T18:37:03.313Z,25.27
2022-08-20T18:42:45.745Z,25.14
2022-08-20T18:47:48.563Z,25.01
2022-08-20T18:53:07.178Z,24.94
2022-08-20T18:58:32.956Z,24.85
2022-08-20T19:03:36.004Z,24.74
2022-08-20T19:09:18.668Z,24.65
2022-08-20T19:14:40.074Z,24.55
2022-08-20T19:19:43.055Z,24.47
2022-08-20T19:24:46.421Z,24.37
2022-08-20T19:29:49.811Z,24.30
2022-08-20T19:35:06.023Z,24.21
2022-08-20T19:40:40.090Z,24.12
2022-08-20T19:45:52.498Z,24.05
2022-08-20T19:51:19.608Z,23.99
2022-08-20T19:56:25.510Z,23.88
2022-08-20T20:01:28.510Z,23.83
2022-08-20T20:06:36.239Z,23.76
2022-08-20T20:12:22.726Z,23.66
2022-08-20T20:17:31.664Z,23.58
2022-08-20T20:22:48.727Z,23.53
2022-08-20T20:27:54.989Z,23.47
2022-08-20T20:32:59.997Z,23.40
2022-08-20T20:38:06.732Z,23.32
2022-08-20T20:43:12.348Z,23.24
2022-08-20T20:48:22.449Z,23.18
2022-08-20T20:53:52.995Z,23.13
2022-08-20T20:58:56.055Z,23.13
2022-08-20T21:03:59.303Z,23.10
2022-08-20T21:09:02.309Z,23.06
2022-08-20T21:14:05.304Z,23.01
2022-08-20T21:19:08.791Z,22.96
2022-08-20T21:24:11.675Z,22.91
2022-08-20T21:29:31.717Z,22.85
2022-08-20T21:34:35.287Z,22.84
2022-08-20T21:39:38.156Z,22.84
2022-08-20T21:44:41.388Z,22.82
2022-08-20T21:49:52.632Z,22.78
2022-08-20T21:54:55.414Z,22.75
2022-08-20T21:59:58.456Z,22.71
2022-08-20T22:05:01.271Z,22.72
2022-08-20T22:10:05.712Z,22.67
2022-08-20T22:15:09.562Z,22.67
2022-08-20T22:20:12.974Z,22.65
2022-08-20T22:25:15.781Z,22.57
2022-08-20T22:30:18.690Z,22.58
2022-08-20T22:35:21.535Z,22.62
2022-08-20T22:40:24.557Z,22.62
2022-08-20T22:45:27.445Z,22.62
2022-08-20T22:50:30.339Z,22.61
2022-08-20T22:55:35.050Z,22.57
2022-08-20T23:00:38.969Z,22.55
2022-08-20T23:05:42.380Z,22.54
2022-08-20T23:10:45.294Z,22.55
2022-08-20T23:15:48.121Z,22.52
2022-08-20T23:20:56.448Z,22.45
2022-08-20T23:25:59.309Z,22.45
2022-08-20T23:31:02.221Z,22.44
2022-08-20T23:36:05.498Z,22.39
2022-08-20T23:41:08.300Z,22.36
2022-08-20T23:46:11.191Z,22.33
2022-08-20T23:51:13.961Z,22.27
2022-08-20T23:56:17.400Z,22.21
